PWSweather.com
Personal Weather Stations
Station Observations
KTXPLANO60
Highlands Of Russell Park, Plano, TX 75025

Highlands Of Russell ParkPlano, TX 75025

Lat: 33.10431671, Lon: -96.75176239

Elevation: 761

Station Type: Davis Wireless VP2 Plus

http://www.planoweather.com

Latest ConditionsUpdated 4:00:00 AM CST Tuesday, Dec 10, 2019
Currently Today's Max Today's Min Today's Average
Temperature 34.4°F1.3°C 37.7°F3.2°C 34.4°F1.3°C 36.1°F2.3°C
Dew Point 30.6°F-0.8°C 34.2°F1.2°C 30.6°F-0.8°C 33.1°F0.6°C
Winds 10.4 mph N16.7 kmh N 10.4 mph -16.7 kmh - - 7.6 mph 12.2 kmh
Wind Gusts 15.0 mph24.1 kmh 17.3 mph27.8 kmh - -
Humidity 86% 90% 86% 89%
Pressure 30.13 in1020.3 mb 30.13 in1020.3 mb 30.06 in1017.9 mb -
Precipitation - 0.49 in12.4 mm - -
Hour Temp Dew Point Humidity Winds Wind Gusts Pressure Precip Precip Rate Daily Precip Total
04:00 AM 34.4°F1.3°C 30.6°F-0.8°C 86% 10.4 mph N16.7 kmh N 15.0 mph24.1 kmh 30.13 in1020.3 mb - 0.11 in2.8 mm 0.49 in12.4 mm
03:50 AM 34.7°F1.5°C 31.2°F-0.4°C 87% 9.2 mph N14.8 kmh N 11.5 mph18.5 kmh 30.13 in1020.3 mb - 0.12 in3.0 mm 0.48 in12.2 mm
03:40 AM 34.9°F1.6°C 31.7°F-0.2°C 88% 5.8 mph NNW9.3 kmh NNW 11.5 mph18.5 kmh 30.13 in1020.3 mb - 0.11 in2.8 mm 0.46 in11.7 mm
03:30 AM 35.1°F1.7°C 32.2°F0.1°C 89% 9.2 mph N14.8 kmh N 13.8 mph22.2 kmh 30.12 in1020.0 mb - 0.11 in2.8 mm 0.44 in11.2 mm
03:20 AM 35.1°F1.7°C 32.2°F0.1°C 89% 9.2 mph N14.8 kmh N 11.5 mph18.5 kmh 30.12 in1020.0 mb - 0.13 in3.3 mm 0.43 in10.9 mm
03:10 AM 35.2°F1.8°C 32.3°F0.2°C 89% 6.9 mph N11.1 kmh N 9.2 mph14.8 kmh 30.11 in1019.6 mb - 0.13 in3.3 mm 0.41 in10.4 mm
03:00 AM 35.5°F1.9°C 32.6°F0.3°C 89% 6.9 mph N11.1 kmh N 11.5 mph18.5 kmh 30.10 in1019.3 mb - 0.13 in3.3 mm 0.38 in9.7 mm
02:50 AM 35.9°F2.2°C 33.0°F0.6°C 89% 5.8 mph NNE9.3 kmh NNE 8.1 mph13.0 kmh 30.10 in1019.3 mb - 0.13 in3.3 mm 0.36 in9.1 mm
02:40 AM 36.0°F2.2°C 33.1°F0.6°C 89% 4.6 mph N7.4 kmh N 8.1 mph13.0 kmh 30.10 in1019.3 mb - 0.15 in3.8 mm 0.35 in8.9 mm
02:30 AM 36.2°F2.3°C 33.3°F0.7°C 89% 5.8 mph N9.3 kmh N 6.9 mph11.1 kmh 30.10 in1019.3 mb - 0.16 in4.1 mm 0.33 in8.4 mm
02:20 AM 36.2°F2.3°C 33.3°F0.7°C 89% 8.1 mph N13.0 kmh N 9.2 mph14.8 kmh 30.10 in1019.3 mb - 0.15 in3.8 mm 0.30 in7.6 mm
02:10 AM 36.2°F2.3°C 33.3°F0.7°C 89% 6.9 mph N11.1 kmh N 11.5 mph18.5 kmh 30.10 in1019.3 mb - 0.15 in3.8 mm 0.28 in7.1 mm
02:00 AM 36.2°F2.3°C 33.3°F0.7°C 89% 6.9 mph NNW11.1 kmh NNW 11.5 mph18.5 kmh 30.10 in1019.3 mb - 0.13 in3.3 mm 0.25 in6.4 mm
01:50 AM 36.3°F2.4°C 33.4°F0.8°C 89% 6.9 mph N11.1 kmh N 10.4 mph16.7 kmh 30.08 in1018.6 mb - 0.13 in3.3 mm 0.23 in5.8 mm
01:40 AM 36.4°F2.4°C 33.5°F0.8°C 89% 5.8 mph N9.3 kmh N 9.2 mph14.8 kmh 30.08 in1018.6 mb - 0.13 in3.3 mm 0.20 in5.1 mm
01:30 AM 36.3°F2.4°C 33.4°F0.8°C 89% 9.2 mph N14.8 kmh N 11.5 mph18.5 kmh 30.08 in1018.6 mb - 0.12 in3.0 mm 0.17 in4.3 mm
01:20 AM 36.4°F2.4°C 33.5°F0.8°C 89% 6.9 mph N11.1 kmh N 10.4 mph16.7 kmh 30.08 in1018.6 mb - 0.12 in3.0 mm 0.15 in3.8 mm
01:10 AM 36.5°F2.5°C 33.8°F1.0°C 90% 8.1 mph N13.0 kmh N 9.2 mph14.8 kmh 30.08 in1018.6 mb - 0.11 in2.8 mm 0.13 in3.3 mm
01:00 AM 36.7°F2.6°C 34.0°F1.1°C 90% 9.2 mph N14.8 kmh N 11.5 mph18.5 kmh 30.07 in1018.3 mb - 0.12 in3.0 mm 0.12 in3.0 mm
12:50 AM 36.8°F2.7°C 33.9°F1.1°C 89% 5.8 mph N9.3 kmh N 11.5 mph18.5 kmh 30.07 in1018.3 mb - 0.12 in3.0 mm 0.10 in2.5 mm
12:40 AM 36.8°F2.7°C 33.9°F1.1°C 89% 6.9 mph N11.1 kmh N 11.5 mph18.5 kmh 30.07 in1018.3 mb - 0.10 in2.5 mm 0.08 in2.0 mm
12:30 AM 37.0°F2.8°C 34.1°F1.2°C 89% 6.9 mph N11.1 kmh N 11.5 mph18.5 kmh 30.08 in1018.6 mb - 0.07 in1.8 mm 0.05 in1.3 mm
12:20 AM 37.2°F2.9°C 34.2°F1.2°C 89% 10.4 mph N16.7 kmh N 17.3 mph27.8 kmh 30.06 in1017.9 mb - 0.05 in1.3 mm 0.03 in0.8 mm
12:10 AM 37.4°F3.0°C 34.2°F1.2°C 88% 9.2 mph N14.8 kmh N 15.0 mph24.1 kmh 30.06 in1017.9 mb - 0.04 in1.0 mm 0.02 in0.5 mm
12:00 AM 37.7°F3.2°C 34.2°F1.2°C 87% 9.2 mph N14.8 kmh N 11.5 mph18.5 kmh 30.06 in1017.9 mb - 0.02 in0.5 mm 0.02 in0.5 mm